sensor_id;sensor_type;location;lat;lon;timestamp;temperature;humidity
35129;DHT22;21301;43.626;10.580;2023-09-07T00:00:20;22.90;13.30
35129;DHT22;21301;43.626;10.580;2023-09-07T00:02:46;22.90;19.40
35129;DHT22;21301;43.626;10.580;2023-09-07T00:05:12;22.80;25.50
35129;DHT22;21301;43.626;10.580;2023-09-07T00:07:38;22.80;30.50
35129;DHT22;21301;43.626;10.580;2023-09-07T00:10:05;22.80;34.90
35129;DHT22;21301;43.626;10.580;2023-09-07T00:12:31;22.60;57.20
35129;DHT22;21301;43.626;10.580;2023-09-07T00:14:57;22.50;77.70
35129;DHT22;21301;43.626;10.580;2023-09-07T00:17:23;22.30;96.50
35129;DHT22;21301;43.626;10.580;2023-09-07T00:19:49;22.20;99.90
35129;DHT22;21301;43.626;10.580;2023-09-07T00:22:17;22.20;99.90
35129;DHT22;21301;43.626;10.580;2023-09-07T00:24:44;22.10;99.90
35129;DHT22;21301;43.626;10.580;2023-09-07T00:27:10;22.10;99.90
35129;DHT22;21301;43.626;10.580;2023-09-07T00:29:38;22.10;99.90
35129;DHT22;21301;43.626;10.580;2023-09-07T00:32:04;22.00;99.90
35129;DHT22;21301;43.626;10.580;2023-09-07T00:34:30;22.00;99.90
35129;DHT22;21301;43.626;10.580;2023-09-07T00:36:56;22.00;99.90
35129;DHT22;21301;43.626;10.580;2023-09-07T00:39:22;22.00;99.90
35129;DHT22;21301;43.626;10.580;2023-09-07T00:41:48;22.00;99.90
35129;DHT22;21301;43.626;10.580;2023-09-07T00:44:14;22.00;99.90
35129;DHT22;21301;43.626;10.580;2023-09-07T00:46:40;22.00;99.90
35129;DHT22;21301;43.626;10.580;2023-09-07T00:49:06;21.90;99.90
35129;DHT22;21301;43.626;10.580;2023-09-07T00:51:32;21.90;99.90
35129;DHT22;21301;43.626;10.580;2023-09-07T00:53:59;21.80;99.90
35129;DHT22;21301;43.626;10.580;2023-09-07T00:56:28;21.80;99.90
35129;DHT22;21301;43.626;10.580;2023-09-07T00:58:54;21.70;99.90
35129;DHT22;21301;43.626;10.580;2023-09-07T01:01:22;21.70;99.90
35129;DHT22;21301;43.626;10.580;2023-09-07T01:03:50;21.60;99.90
35129;DHT22;21301;43.626;10.580;2023-09-07T01:06:22;21.60;99.90
35129;DHT22;21301;43.626;10.580;2023-09-07T01:08:54;21.50;1.00
35129;DHT22;21301;43.626;10.580;2023-09-07T01:11:24;21.40;27.90
35129;DHT22;21301;43.626;10.580;2023-09-07T01:13:50;21.40;41.50
35129;DHT22;21301;43.626;10.580;2023-09-07T01:16:20;21.50;50.70
35129;DHT22;21301;43.626;10.580;2023-09-07T01:18:47;21.50;89.60
35129;DHT22;21301;43.626;10.580;2023-09-07T01:21:14;21.50;99.60
35129;DHT22;21301;43.626;10.580;2023-09-07T01:23:42;21.40;99.90
35129;DHT22;21301;43.626;10.580;2023-09-07T01:26:09;21.30;99.90
35129;DHT22;21301;43.626;10.580;2023-09-07T01:28:35;21.30;99.90
35129;DHT22;21301;43.626;10.580;2023-09-07T01:31:03;21.30;99.90
35129;DHT22;21301;43.626;10.580;2023-09-07T01:33:29;21.30;99.90
35129;DHT22;21301;43.626;10.580;2023-09-07T01:35:55;21.20;99.90
35129;DHT22;21301;43.626;10.580;2023-09-07T01:38:21;21.10;29.20
35129;DHT22;21301;43.626;10.580;2023-09-07T01:40:47;21.10;68.90
35129;DHT22;21301;43.626;10.580;2023-09-07T01:43:13;21.10;99.90
35129;DHT22;21301;43.626;10.580;2023-09-07T01:45:39;21.20;99.90
35129;DHT22;21301;43.626;10.580;2023-09-07T01:48:10;21.20;99.90
35129;DHT22;21301;43.626;10.580;2023-09-07T01:50:36;21.40;99.90
35129;DHT22;21301;43.626;10.580;2023-09-07T01:53:02;21.50;1.00
35129;DHT22;21301;43.626;10.580;2023-09-07T01:55:31;21.50;99.90
35129;DHT22;21301;43.626;10.580;2023-09-07T01:57:59;21.50;99.90
35129;DHT22;21301;43.626;10.580;2023-09-07T02:00:25;21.50;99.90
35129;DHT22;21301;43.626;10.580;2023-09-07T02:02:50;21.60;99.90
35129;DHT22;21301;43.626;10.580;2023-09-07T02:05:16;21.50;99.90
35129;DHT22;21301;43.626;10.580;2023-09-07T02:07:48;21.60;99.90
35129;DHT22;21301;43.626;10.580;2023-09-07T02:13:56;21.40;99.90
35129;DHT22;21301;43.626;10.580;2023-09-07T02:16:22;21.30;99.90
35129;DHT22;21301;43.626;10.580;2023-09-07T02:18:49;21.40;99.90
35129;DHT22;21301;43.626;10.580;2023-09-07T02:21:15;21.40;99.90
35129;DHT22;21301;43.626;10.580;2023-09-07T02:23:42;21.20;99.90
35129;DHT22;21301;43.626;10.580;2023-09-07T02:26:08;21.00;99.90
35129;DHT22;21301;43.626;10.580;2023-09-07T02:28:34;20.80;1.00
35129;DHT22;21301;43.626;10.580;2023-09-07T02:31:04;20.70;99.90
35129;DHT22;21301;43.626;10.580;2023-09-07T02:33:30;20.70;1.00
35129;DHT22;21301;43.626;10.580;2023-09-07T02:35:57;20.80;99.90
35129;DHT22;21301;43.626;10.580;2023-09-07T02:38:23;20.70;13.90
35129;DHT22;21301;43.626;10.580;2023-09-07T02:40:49;20.70;1.00
35129;DHT22;21301;43.626;10.580;2023-09-07T02:43:15;20.70;1.00
35129;DHT22;21301;43.626;10.580;2023-09-07T02:45:41;20.70;1.00
35129;DHT22;21301;43.626;10.580;2023-09-07T02:48:07;20.70;23.80
35129;DHT22;21301;43.626;10.580;2023-09-07T02:50:34;20.60;99.90
35129;DHT22;21301;43.626;10.580;2023-09-07T02:53:01;20.50;99.90
35129;DHT22;21301;43.626;10.580;2023-09-07T02:55:28;20.30;99.90
35129;DHT22;21301;43.626;10.580;2023-09-07T02:57:58;20.10;99.90
35129;DHT22;21301;43.626;10.580;2023-09-07T03:00:25;20.10;99.90
35129;DHT22;21301;43.626;10.580;2023-09-07T03:02:51;20.10;99.90
35129;DHT22;21301;43.626;10.580;2023-09-07T03:05:17;20.00;99.90
35129;DHT22;21301;43.626;10.580;2023-09-07T03:07:46;19.90;1.00
35129;DHT22;21301;43.626;10.580;2023-09-07T03:10:13;19.80;99.90
35129;DHT22;21301;43.626;10.580;2023-09-07T03:12:40;19.80;99.90
35129;DHT22;21301;43.626;10.580;2023-09-07T03:15:06;19.80;99.90
35129;DHT22;21301;43.626;10.580;2023-09-07T03:17:33;19.70;99.90
35129;DHT22;21301;43.626;10.580;2023-09-07T03:20:00;19.70;99.90
35129;DHT22;21301;43.626;10.580;2023-09-07T03:22:26;19.60;99.90
35129;DHT22;21301;43.626;10.580;2023-09-07T03:24:53;19.60;99.90
35129;DHT22;21301;43.626;10.580;2023-09-07T03:27:19;19.60;99.90
35129;DHT22;21301;43.626;10.580;2023-09-07T03:29:49;19.50;47.90
35129;DHT22;21301;43.626;10.580;2023-09-07T03:32:18;19.40;99.90
35129;DHT22;21301;43.626;10.580;2023-09-07T03:34:44;19.50;99.90
35129;DHT22;21301;43.626;10.580;2023-09-07T03:37:09;19.50;99.90
35129;DHT22;21301;43.626;10.580;2023-09-07T03:39:37;19.40;99.90
35129;DHT22;21301;43.626;10.580;2023-09-07T03:42:03;19.20;99.90
35129;DHT22;21301;43.626;10.580;2023-09-07T03:44:30;19.00;99.90
35129;DHT22;21301;43.626;10.580;2023-09-07T03:46:55;19.00;99.90
35129;DHT22;21301;43.626;10.580;2023-09-07T03:49:21;19.10;99.90
35129;DHT22;21301;43.626;10.580;2023-09-07T03:51:47;19.20;99.90
35129;DHT22;21301;43.626;10.580;2023-09-07T03:54:13;19.00;99.90
35129;DHT22;21301;43.626;10.580;2023-09-07T03:56:39;19.00;99.90
35129;DHT22;21301;43.626;10.580;2023-09-07T03:59:07;18.80;99.90
35129;DHT22;21301;43.626;10.580;2023-09-07T04:01:33;18.90;99.90
35129;DHT22;21301;43.626;10.580;2023-09-07T04:03:58;19.00;99.90
35129;DHT22;21301;43.626;10.580;2023-09-07T04:06:24;19.10;99.90
35129;DHT22;21301;43.626;10.580;2023-09-07T04:08:50;19.00;99.90
35129;DHT22;21301;43.626;10.580;2023-09-07T04:11:16;19.00;99.90
35129;DHT22;21301;43.626;10.580;2023-09-07T04:13:41;18.90;99.90
35129;DHT22;21301;43.626;10.580;2023-09-07T04:16:09;18.80;1.00
35129;DHT22;21301;43.626;10.580;2023-09-07T04:18:35;18.90;99.90
35129;DHT22;21301;43.626;10.580;2023-09-07T04:21:05;18.90;99.90
35129;DHT22;21301;43.626;10.580;2023-09-07T04:23:32;19.00;99.90
35129;DHT22;21301;43.626;10.580;2023-09-07T04:26:10;18.80;99.90
35129;DHT22;21301;43.626;10.580;2023-09-07T04:28:37;18.50;1.00
35129;DHT22;21301;43.626;10.580;2023-09-07T04:31:04;18.60;1.00
35129;DHT22;21301;43.626;10.580;2023-09-07T04:33:34;18.60;1.00
35129;DHT22;21301;43.626;10.580;2023-09-07T04:36:10;18.50;1.00
35129;DHT22;21301;43.626;10.580;2023-09-07T04:38:36;18.40;1.00
35129;DHT22;21301;43.626;10.580;2023-09-07T04:41:10;18.50;7.50
35129;DHT22;21301;43.626;10.580;2023-09-07T04:43:37;18.40;1.00
35129;DHT22;21301;43.626;10.580;2023-09-07T04:46:06;18.50;1.00
35129;DHT22;21301;43.626;10.580;2023-09-07T04:48:33;18.30;1.00
35129;DHT22;21301;43.626;10.580;2023-09-07T04:51:04;18.30;3.70
35129;DHT22;21301;43.626;10.580;2023-09-07T04:53:32;18.20;14.80
35129;DHT22;21301;43.626;10.580;2023-09-07T04:55:59;18.30;26.30
35129;DHT22;21301;43.626;10.580;2023-09-07T04:58:25;18.30;12.70
35129;DHT22;21301;43.626;10.580;2023-09-07T05:00:51;18.50;12.90
35129;DHT22;21301;43.626;10.580;2023-09-07T05:03:17;18.50;1.00
35129;DHT22;21301;43.626;10.580;2023-09-07T05:05:43;18.50;1.00
35129;DHT22;21301;43.626;10.580;2023-09-07T05:08:10;18.60;1.00
35129;DHT22;21301;43.626;10.580;2023-09-07T05:10:36;18.60;1.00
35129;DHT22;21301;43.626;10.580;2023-09-07T05:13:03;18.60;1.00
35129;DHT22;21301;43.626;10.580;2023-09-07T05:15:28;18.80;1.00
35129;DHT22;21301;43.626;10.580;2023-09-07T05:17:55;19.10;1.00
35129;DHT22;21301;43.626;10.580;2023-09-07T05:20:21;19.20;99.90
35129;DHT22;21301;43.626;10.580;2023-09-07T05:22:48;19.40;99.90
35129;DHT22;21301;43.626;10.580;2023-09-07T05:25:14;19.70;99.90
35129;DHT22;21301;43.626;10.580;2023-09-07T05:27:40;20.20;99.90
35129;DHT22;21301;43.626;10.580;2023-09-07T05:30:06;20.70;99.90
35129;DHT22;21301;43.626;10.580;2023-09-07T05:32:32;21.10;99.90
35129;DHT22;21301;43.626;10.580;2023-09-07T05:34:58;21.70;99.90
35129;DHT22;21301;43.626;10.580;2023-09-07T05:37:24;22.00;99.90
35129;DHT22;21301;43.626;10.580;2023-09-07T05:39:50;22.20;99.90
35129;DHT22;21301;43.626;10.580;2023-09-07T05:42:16;22.40;99.90
35129;DHT22;21301;43.626;10.580;2023-09-07T05:44:42;22.50;32.30
35129;DHT22;21301;43.626;10.580;2023-09-07T05:47:08;22.80;99.90
35129;DHT22;21301;43.626;10.580;2023-09-07T05:49:34;23.10;99.90
35129;DHT22;21301;43.626;10.580;2023-09-07T05:52:00;23.30;94.40
35129;DHT22;21301;43.626;10.580;2023-09-07T05:54:25;23.50;99.90
35129;DHT22;21301;43.626;10.580;2023-09-07T05:56:51;24.20;99.90
35129;DHT22;21301;43.626;10.580;2023-09-07T05:59:17;24.70;99.90
35129;DHT22;21301;43.626;10.580;2023-09-07T06:01:44;25.00;99.90
35129;DHT22;21301;43.626;10.580;2023-09-07T06:04:10;25.20;99.90
35129;DHT22;21301;43.626;10.580;2023-09-07T06:06:36;25.50;92.10
35129;DHT22;21301;43.626;10.580;2023-09-07T06:09:02;26.00;59.00
35129;DHT22;21301;43.626;10.580;2023-09-07T06:11:29;26.10;51.80
35129;DHT22;21301;43.626;10.580;2023-09-07T06:13:58;25.50;75.40
35129;DHT22;21301;43.626;10.580;2023-09-07T06:16:24;26.10;74.90
35129;DHT22;21301;43.626;10.580;2023-09-07T06:18:50;26.60;36.50
35129;DHT22;21301;43.626;10.580;2023-09-07T06:21:16;25.90;41.50
35129;DHT22;21301;43.626;10.580;2023-09-07T06:23:42;26.40;33.80
35129;DHT22;21301;43.626;10.580;2023-09-07T06:26:08;26.20;22.90
35129;DHT22;21301;43.626;10.580;2023-09-07T06:28:34;26.90;22.20
35129;DHT22;21301;43.626;10.580;2023-09-07T06:31:00;26.40;1.00
35129;DHT22;21301;43.626;10.580;2023-09-07T06:33:26;25.60;27.50
35129;DHT22;21301;43.626;10.580;2023-09-07T06:35:52;26.20;40.10
35129;DHT22;21301;43.626;10.580;2023-09-07T06:38:18;27.20;6.70
35129;DHT22;21301;43.626;10.580;2023-09-07T06:40:50;28.20;1.00
35129;DHT22;21301;43.626;10.580;2023-09-07T06:43:17;28.90;1.00
35129;DHT22;21301;43.626;10.580;2023-09-07T06:45:44;29.20;1.00
35129;DHT22;21301;43.626;10.580;2023-09-07T06:48:10;29.80;99.90
35129;DHT22;21301;43.626;10.580;2023-09-07T06:50:36;30.30;99.90
35129;DHT22;21301;43.626;10.580;2023-09-07T06:53:02;30.60;99.90
35129;DHT22;21301;43.626;10.580;2023-09-07T06:55:28;30.90;99.90
35129;DHT22;21301;43.626;10.580;2023-09-07T06:57:54;30.90;99.90
35129;DHT22;21301;43.626;10.580;2023-09-07T07:00:21;31.10;99.90
35129;DHT22;21301;43.626;10.580;2023-09-07T07:02:47;31.10;99.90
35129;DHT22;21301;43.626;10.580;2023-09-07T07:05:14;30.50;99.90
35129;DHT22;21301;43.626;10.580;2023-09-07T07:07:40;30.60;99.90
35129;DHT22;21301;43.626;10.580;2023-09-07T07:10:07;31.00;99.90
35129;DHT22;21301;43.626;10.580;2023-09-07T07:12:34;30.90;99.90
35129;DHT22;21301;43.626;10.580;2023-09-07T07:15:01;30.90;99.90
35129;DHT22;21301;43.626;10.580;2023-09-07T07:17:28;30.60;99.90
35129;DHT22;21301;43.626;10.580;2023-09-07T07:19:54;30.30;99.90
35129;DHT22;21301;43.626;10.580;2023-09-07T07:22:19;30.00;99.90
35129;DHT22;21301;43.626;10.580;2023-09-07T07:24:46;30.00;99.90
35129;DHT22;21301;43.626;10.580;2023-09-07T07:27:12;30.20;99.90
35129;DHT22;21301;43.626;10.580;2023-09-07T07:29:39;30.40;99.90
35129;DHT22;21301;43.626;10.580;2023-09-07T07:32:04;30.10;99.90
35129;DHT22;21301;43.626;10.580;2023-09-07T07:34:31;30.10;99.90
35129;DHT22;21301;43.626;10.580;2023-09-07T07:36:57;30.40;99.90
35129;DHT22;21301;43.626;10.580;2023-09-07T07:39:23;30.60;99.90
35129;DHT22;21301;43.626;10.580;2023-09-07T07:41:49;30.60;99.90
35129;DHT22;21301;43.626;10.580;2023-09-07T07:44:16;30.50;99.90
35129;DHT22;21301;43.626;10.580;2023-09-07T07:46:42;30.40;99.90
35129;DHT22;21301;43.626;10.580;2023-09-07T07:49:08;30.50;99.90
35129;DHT22;21301;43.626;10.580;2023-09-07T07:51:35;30.40;99.90
35129;DHT22;21301;43.626;10.580;2023-09-07T07:54:01;30.30;99.90
35129;DHT22;21301;43.626;10.580;2023-09-07T07:56:27;29.90;99.90
35129;DHT22;21301;43.626;10.580;2023-09-07T07:58:54;30.00;99.90
35129;DHT22;21301;43.626;10.580;2023-09-07T08:01:20;29.70;99.90
35129;DHT22;21301;43.626;10.580;2023-09-07T08:03:48;29.60;99.90
35129;DHT22;21301;43.626;10.580;2023-09-07T08:06:14;29.60;99.90
35129;DHT22;21301;43.626;10.580;2023-09-07T08:08:41;29.40;99.90
35129;DHT22;21301;43.626;10.580;2023-09-07T08:11:07;29.50;99.90
35129;DHT22;21301;43.626;10.580;2023-09-07T08:13:35;29.60;99.90
35129;DHT22;21301;43.626;10.580;2023-09-07T08:16:02;29.60;99.90
35129;DHT22;21301;43.626;10.580;2023-09-07T08:18:28;29.50;99.90
35129;DHT22;21301;43.626;10.580;2023-09-07T08:20:56;29.60;99.90
35129;DHT22;21301;43.626;10.580;2023-09-07T08:23:21;29.50;99.90
35129;DHT22;21301;43.626;10.580;2023-09-07T08:25:51;29.70;99.90
35129;DHT22;21301;43.626;10.580;2023-09-07T08:28:18;29.80;99.90
35129;DHT22;21301;43.626;10.580;2023-09-07T08:30:48;29.90;99.90
35129;DHT22;21301;43.626;10.580;2023-09-07T08:33:14;30.10;99.90
35129;DHT22;21301;43.626;10.580;2023-09-07T08:35:39;30.20;99.90
35129;DHT22;21301;43.626;10.580;2023-09-07T08:38:12;30.00;99.90
35129;DHT22;21301;43.626;10.580;2023-09-07T08:40:39;30.20;99.90
35129;DHT22;21301;43.626;10.580;2023-09-07T08:43:09;30.20;99.90
35129;DHT22;21301;43.626;10.580;2023-09-07T08:45:41;30.20;99.90
35129;DHT22;21301;43.626;10.580;2023-09-07T08:48:11;30.30;99.90
35129;DHT22;21301;43.626;10.580;2023-09-07T08:50:39;30.20;99.90
35129;DHT22;21301;43.626;10.580;2023-09-07T08:53:08;30.00;99.90
35129;DHT22;21301;43.626;10.580;2023-09-07T08:55:34;30.30;99.90
35129;DHT22;21301;43.626;10.580;2023-09-07T08:58:00;30.50;99.90
35129;DHT22;21301;43.626;10.580;2023-09-07T09:00:25;30.60;99.90
35129;DHT22;21301;43.626;10.580;2023-09-07T09:02:51;30.60;99.90
35129;DHT22;21301;43.626;10.580;2023-09-07T09:05:20;30.40;99.90
35129;DHT22;21301;43.626;10.580;2023-09-07T09:07:45;30.70;99.90
35129;DHT22;21301;43.626;10.580;2023-09-07T09:10:11;30.30;99.90
35129;DHT22;21301;43.626;10.580;2023-09-07T09:12:45;30.40;99.90
35129;DHT22;21301;43.626;10.580;2023-09-07T09:15:12;30.70;99.90
35129;DHT22;21301;43.626;10.580;2023-09-07T09:17:38;30.80;99.90
35129;DHT22;21301;43.626;10.580;2023-09-07T09:20:04;30.70;99.90
35129;DHT22;21301;43.626;10.580;2023-09-07T09:22:35;30.70;99.90
35129;DHT22;21301;43.626;10.580;2023-09-07T09:25:04;30.80;99.90
35129;DHT22;21301;43.626;10.580;2023-09-07T09:27:30;31.00;99.90
35129;DHT22;21301;43.626;10.580;2023-09-07T09:29:56;30.80;99.90
35129;DHT22;21301;43.626;10.580;2023-09-07T09:32:24;30.60;99.90
35129;DHT22;21301;43.626;10.580;2023-09-07T09:34:50;30.80;99.90
35129;DHT22;21301;43.626;10.580;2023-09-07T09:37:17;31.00;99.90
35129;DHT22;21301;43.626;10.580;2023-09-07T09:39:49;31.00;99.90
35129;DHT22;21301;43.626;10.580;2023-09-07T09:42:16;31.20;99.90
35129;DHT22;21301;43.626;10.580;2023-09-07T09:44:43;31.30;99.90
35129;DHT22;21301;43.626;10.580;2023-09-07T09:47:10;31.10;99.90
35129;DHT22;21301;43.626;10.580;2023-09-07T09:49:37;31.00;99.90
35129;DHT22;21301;43.626;10.580;2023-09-07T09:52:04;31.20;99.90
35129;DHT22;21301;43.626;10.580;2023-09-07T09:54:34;31.10;99.90
35129;DHT22;21301;43.626;10.580;2023-09-07T09:57:00;31.20;99.90
35129;DHT22;21301;43.626;10.580;2023-09-07T09:59:27;31.20;99.90
35129;DHT22;21301;43.626;10.580;2023-09-07T10:01:53;31.30;99.90
35129;DHT22;21301;43.626;10.580;2023-09-07T10:04:20;31.10;99.90
35129;DHT22;21301;43.626;10.580;2023-09-07T10:06:56;31.20;99.90
35129;DHT22;21301;43.626;10.580;2023-09-07T10:09:23;31.00;99.90
35129;DHT22;21301;43.626;10.580;2023-09-07T10:11:53;31.10;99.90
35129;DHT22;21301;43.626;10.580;2023-09-07T10:14:19;31.30;99.90
35129;DHT22;21301;43.626;10.580;2023-09-07T10:16:47;31.30;99.90
35129;DHT22;21301;43.626;10.580;2023-09-07T10:19:17;31.50;99.90
35129;DHT22;21301;43.626;10.580;2023-09-07T10:21:43;31.20;99.90
35129;DHT22;21301;43.626;10.580;2023-09-07T10:24:09;31.20;99.90
35129;DHT22;21301;43.626;10.580;2023-09-07T10:26:35;31.30;99.90
35129;DHT22;21301;43.626;10.580;2023-09-07T10:29:01;31.40;99.90
35129;DHT22;21301;43.626;10.580;2023-09-07T10:31:29;31.80;99.90
35129;DHT22;21301;43.626;10.580;2023-09-07T10:34:10;31.70;99.90
35129;DHT22;21301;43.626;10.580;2023-09-07T10:36:37;31.70;99.90
35129;DHT22;21301;43.626;10.580;2023-09-07T10:39:04;31.60;99.90
35129;DHT22;21301;43.626;10.580;2023-09-07T10:41:45;31.40;99.90
35129;DHT22;21301;43.626;10.580;2023-09-07T10:44:11;31.70;99.90
35129;DHT22;21301;43.626;10.580;2023-09-07T10:46:39;32.00;99.90
35129;DHT22;21301;43.626;10.580;2023-09-07T10:49:11;31.70;99.90
35129;DHT22;21301;43.626;10.580;2023-09-07T10:51:44;32.00;99.90
35129;DHT22;21301;43.626;10.580;2023-09-07T10:54:23;31.80;99.90
35129;DHT22;21301;43.626;10.580;2023-09-07T10:56:50;31.90;99.90
35129;DHT22;21301;43.626;10.580;2023-09-07T10:59:17;31.70;99.90
35129;DHT22;21301;43.626;10.580;2023-09-07T11:01:46;31.90;99.90
35129;DHT22;21301;43.626;10.580;2023-09-07T11:04:14;32.40;99.90
35129;DHT22;21301;43.626;10.580;2023-09-07T11:06:41;32.30;99.90
35129;DHT22;21301;43.626;10.580;2023-09-07T11:09:08;32.30;99.90
35129;DHT22;21301;43.626;10.580;2023-09-07T11:11:36;32.30;99.90
35129;DHT22;21301;43.626;10.580;2023-09-07T11:14:05;32.30;99.90
35129;DHT22;21301;43.626;10.580;2023-09-07T11:16:34;32.10;99.90
35129;DHT22;21301;43.626;10.580;2023-09-07T11:19:06;32.30;99.90
35129;DHT22;21301;43.626;10.580;2023-09-07T11:21:35;31.90;99.90
35129;DHT22;21301;43.626;10.580;2023-09-07T11:24:01;31.90;99.90
35129;DHT22;21301;43.626;10.580;2023-09-07T11:26:43;31.90;99.90
35129;DHT22;21301;43.626;10.580;2023-09-07T11:29:09;32.00;99.90
35129;DHT22;21301;43.626;10.580;2023-09-07T11:31:35;32.30;99.90
35129;DHT22;21301;43.626;10.580;2023-09-07T11:34:00;32.20;99.90
35129;DHT22;21301;43.626;10.580;2023-09-07T11:36:26;31.90;99.90
35129;DHT22;21301;43.626;10.580;2023-09-07T11:38:53;31.80;99.90
35129;DHT22;21301;43.626;10.580;2023-09-07T11:41:19;31.90;99.90
35129;DHT22;21301;43.626;10.580;2023-09-07T11:43:44;32.10;99.90
35129;DHT22;21301;43.626;10.580;2023-09-07T11:46:11;32.20;99.90
35129;DHT22;21301;43.626;10.580;2023-09-07T11:48:36;32.50;99.90
35129;DHT22;21301;43.626;10.580;2023-09-07T11:51:02;32.40;99.90
35129;DHT22;21301;43.626;10.580;2023-09-07T11:53:28;32.30;99.90
35129;DHT22;21301;43.626;10.580;2023-09-07T11:55:55;32.20;99.90
35129;DHT22;21301;43.626;10.580;2023-09-07T11:58:21;32.40;99.90
35129;DHT22;21301;43.626;10.580;2023-09-07T12:00:47;32.50;99.90
35129;DHT22;21301;43.626;10.580;2023-09-07T12:03:13;32.30;99.90
35129;DHT22;21301;43.626;10.580;2023-09-07T12:05:38;32.10;99.90
35129;DHT22;21301;43.626;10.580;2023-09-07T12:08:05;32.00;99.90
35129;DHT22;21301;43.626;10.580;2023-09-07T12:10:31;31.90;99.90
35129;DHT22;21301;43.626;10.580;2023-09-07T12:12:57;31.90;99.90
35129;DHT22;21301;43.626;10.580;2023-09-07T12:15:23;32.20;99.90
35129;DHT22;21301;43.626;10.580;2023-09-07T12:17:48;32.00;99.90
35129;DHT22;21301;43.626;10.580;2023-09-07T12:20:19;31.90;99.90
35129;DHT22;21301;43.626;10.580;2023-09-07T12:22:46;31.90;99.90
35129;DHT22;21301;43.626;10.580;2023-09-07T12:25:12;32.00;99.90
35129;DHT22;21301;43.626;10.580;2023-09-07T12:27:38;32.20;99.90
35129;DHT22;21301;43.626;10.580;2023-09-07T12:30:04;31.90;99.90
35129;DHT22;21301;43.626;10.580;2023-09-07T12:32:34;32.10;99.90
35129;DHT22;21301;43.626;10.580;2023-09-07T12:34:59;32.00;99.90
35129;DHT22;21301;43.626;10.580;2023-09-07T12:37:25;32.20;99.90
35129;DHT22;21301;43.626;10.580;2023-09-07T12:39:51;32.10;99.90
35129;DHT22;21301;43.626;10.580;2023-09-07T12:42:17;31.90;99.90
35129;DHT22;21301;43.626;10.580;2023-09-07T12:44:44;31.90;99.90
35129;DHT22;21301;43.626;10.580;2023-09-07T12:47:09;32.00;99.90
35129;DHT22;21301;43.626;10.580;2023-09-07T12:49:35;32.10;99.90
35129;DHT22;21301;43.626;10.580;2023-09-07T12:52:01;31.90;99.90
35129;DHT22;21301;43.626;10.580;2023-09-07T12:54:34;31.80;99.90
35129;DHT22;21301;43.626;10.580;2023-09-07T12:56:59;31.70;99.90
35129;DHT22;21301;43.626;10.580;2023-09-07T12:59:25;31.60;99.90
35129;DHT22;21301;43.626;10.580;2023-09-07T13:01:51;31.50;99.90
35129;DHT22;21301;43.626;10.580;2023-09-07T13:04:19;31.60;99.90
35129;DHT22;21301;43.626;10.580;2023-09-07T13:06:45;31.90;99.90
35129;DHT22;21301;43.626;10.580;2023-09-07T13:09:11;31.80;99.90
35129;DHT22;21301;43.626;10.580;2023-09-07T13:11:37;31.80;99.90
35129;DHT22;21301;43.626;10.580;2023-09-07T13:14:02;31.80;99.90
35129;DHT22;21301;43.626;10.580;2023-09-07T13:16:28;31.50;99.90
35129;DHT22;21301;43.626;10.580;2023-09-07T13:18:54;31.50;99.90
35129;DHT22;21301;43.626;10.580;2023-09-07T13:21:20;31.50;99.90
35129;DHT22;21301;43.626;10.580;2023-09-07T13:23:46;31.50;99.90
35129;DHT22;21301;43.626;10.580;2023-09-07T13:26:12;31.50;99.90
35129;DHT22;21301;43.626;10.580;2023-09-07T13:28:38;31.60;99.90
35129;DHT22;21301;43.626;10.580;2023-09-07T13:31:03;31.70;99.90
35129;DHT22;21301;43.626;10.580;2023-09-07T13:33:29;31.50;99.90
35129;DHT22;21301;43.626;10.580;2023-09-07T13:35:55;31.50;99.90
35129;DHT22;21301;43.626;10.580;2023-09-07T13:38:21;31.50;99.90
35129;DHT22;21301;43.626;10.580;2023-09-07T13:40:46;31.60;99.90
35129;DHT22;21301;43.626;10.580;2023-09-07T13:43:12;31.50;99.90
35129;DHT22;21301;43.626;10.580;2023-09-07T13:45:38;31.70;99.90
35129;DHT22;21301;43.626;10.580;2023-09-07T13:48:04;31.70;99.90
35129;DHT22;21301;43.626;10.580;2023-09-07T13:50:30;31.80;99.90
35129;DHT22;21301;43.626;10.580;2023-09-07T13:52:56;31.70;99.90
35129;DHT22;21301;43.626;10.580;2023-09-07T13:55:22;31.70;99.90
35129;DHT22;21301;43.626;10.580;2023-09-07T13:57:49;31.80;99.90
35129;DHT22;21301;43.626;10.580;2023-09-07T14:00:14;31.60;99.90
35129;DHT22;21301;43.626;10.580;2023-09-07T14:02:40;31.70;99.90
35129;DHT22;21301;43.626;10.580;2023-09-07T14:05:06;31.60;99.90
35129;DHT22;21301;43.626;10.580;2023-09-07T14:07:33;31.70;99.90
35129;DHT22;21301;43.626;10.580;2023-09-07T14:09:59;31.80;99.90
35129;DHT22;21301;43.626;10.580;2023-09-07T14:12:26;31.90;99.90
35129;DHT22;21301;43.626;10.580;2023-09-07T14:14:52;31.90;99.90
35129;DHT22;21301;43.626;10.580;2023-09-07T14:17:18;31.80;99.90
35129;DHT22;21301;43.626;10.580;2023-09-07T14:19:44;31.60;99.90
35129;DHT22;21301;43.626;10.580;2023-09-07T14:22:11;31.50;99.90
35129;DHT22;21301;43.626;10.580;2023-09-07T14:24:38;31.50;99.90
35129;DHT22;21301;43.626;10.580;2023-09-07T14:27:04;31.50;99.90
35129;DHT22;21301;43.626;10.580;2023-09-07T14:29:30;31.20;99.90
35129;DHT22;21301;43.626;10.580;2023-09-07T14:31:56;31.20;99.90
35129;DHT22;21301;43.626;10.580;2023-09-07T14:34:23;31.40;99.90
35129;DHT22;21301;43.626;10.580;2023-09-07T14:36:49;31.30;99.90
35129;DHT22;21301;43.626;10.580;2023-09-07T14:39:14;31.30;99.90
35129;DHT22;21301;43.626;10.580;2023-09-07T14:41:41;31.30;99.90
35129;DHT22;21301;43.626;10.580;2023-09-07T14:44:08;31.30;99.90
35129;DHT22;21301;43.626;10.580;2023-09-07T14:46:36;31.40;99.90
35129;DHT22;21301;43.626;10.580;2023-09-07T14:49:02;31.50;99.90
35129;DHT22;21301;43.626;10.580;2023-09-07T14:51:28;31.50;99.90
35129;DHT22;21301;43.626;10.580;2023-09-07T14:53:54;31.50;99.90
35129;DHT22;21301;43.626;10.580;2023-09-07T14:56:20;31.50;99.90
35129;DHT22;21301;43.626;10.580;2023-09-07T14:58:46;31.50;99.90
35129;DHT22;21301;43.626;10.580;2023-09-07T15:01:11;31.20;99.90
35129;DHT22;21301;43.626;10.580;2023-09-07T15:03:37;31.10;99.90
35129;DHT22;21301;43.626;10.580;2023-09-07T15:06:06;31.20;99.90
35129;DHT22;21301;43.626;10.580;2023-09-07T15:08:33;31.10;99.90
35129;DHT22;21301;43.626;10.580;2023-09-07T15:10:59;31.20;99.90
35129;DHT22;21301;43.626;10.580;2023-09-07T15:13:26;31.30;99.90
35129;DHT22;21301;43.626;10.580;2023-09-07T15:15:51;31.10;99.90
35129;DHT22;21301;43.626;10.580;2023-09-07T15:18:17;31.10;99.90